createdAt,value
2017-12-24T00:00:06.483Z,10.20
2017-12-24T00:02:34.236Z,11.23
2017-12-24T00:05:01.972Z,11.90
2017-12-24T00:07:29.672Z,11.30
2017-12-24T00:09:57.410Z,11.13
2017-12-24T00:12:25.116Z,12.30
2017-12-24T00:14:52.837Z,11.23
2017-12-24T00:17:20.558Z,10.57
2017-12-24T00:19:48.386Z,11.33
2017-12-24T00:22:16.076Z,11.20
2017-12-24T00:24:43.803Z,12.87
2017-12-24T00:27:11.427Z,11.03
2017-12-24T00:29:39.159Z,12.77
2017-12-24T00:32:06.847Z,12.07
2017-12-24T00:34:34.524Z,10.60
2017-12-24T00:37:02.239Z,11.93
2017-12-24T00:39:29.972Z,10.93
2017-12-24T00:41:57.651Z,12.73
2017-12-24T00:44:25.383Z,14.20
2017-12-24T00:46:53.082Z,12.90
2017-12-24T00:49:20.806Z,13.37
2017-12-24T00:51:48.498Z,12.57
2017-12-24T00:54:16.164Z,12.60
2017-12-24T00:56:43.864Z,14.20
2017-12-24T00:59:11.527Z,13.40
2017-12-24T01:01:39.212Z,14.00
2017-12-24T01:04:06.992Z,14.40
2017-12-24T01:06:34.684Z,10.70
2017-12-24T01:09:02.459Z,12.80
2017-12-24T01:11:30.092Z,14.23
2017-12-24T01:13:57.824Z,13.80
2017-12-24T01:16:25.512Z,12.83
2017-12-24T01:18:53.184Z,14.87
2017-12-24T01:21:20.870Z,12.90
2017-12-24T01:23:48.600Z,14.00
2017-12-24T01:26:16.279Z,15.07
2017-12-24T01:28:44.027Z,12.97
2017-12-24T01:31:11.694Z,13.00
2017-12-24T01:33:39.460Z,12.83
2017-12-24T01:36:07.149Z,13.77
2017-12-24T01:38:34.832Z,11.67
2017-12-24T01:41:02.560Z,10.90
2017-12-24T01:43:30.256Z,9.73
2017-12-24T01:45:57.995Z,12.90
2017-12-24T01:48:25.632Z,11.50
2017-12-24T01:50:53.358Z,11.97
2017-12-24T01:53:21.062Z,12.30
2017-12-24T01:55:48.814Z,12.10
2017-12-24T01:58:16.514Z,12.83
2017-12-24T02:00:44.251Z,14.00
2017-12-24T02:03:12.000Z,12.80
2017-12-24T02:05:39.724Z,11.87
2017-12-24T02:08:07.405Z,10.43
2017-12-24T02:10:35.135Z,11.17
2017-12-24T02:13:02.765Z,14.33
2017-12-24T02:15:30.489Z,13.33
2017-12-24T02:17:58.138Z,13.73
2017-12-24T02:20:25.868Z,13.60
2017-12-24T02:22:53.552Z,13.97
2017-12-24T02:25:21.287Z,14.20
2017-12-24T02:27:48.983Z,13.23
2017-12-24T02:30:16.704Z,12.17
2017-12-24T02:32:44.406Z,11.70
2017-12-24T02:35:12.072Z,12.20
2017-12-24T02:37:39.774Z,13.10
2017-12-24T02:40:07.500Z,11.73
2017-12-24T02:42:35.119Z,9.30
2017-12-24T02:45:02.856Z,11.17
2017-12-24T02:47:30.532Z,13.07
2017-12-24T02:49:58.251Z,13.00
2017-12-24T02:52:25.985Z,10.50
2017-12-24T02:54:53.706Z,11.80
2017-12-24T02:57:21.344Z,13.20
2017-12-24T02:59:49.076Z,11.77
2017-12-24T03:02:16.835Z,13.10
2017-12-24T03:04:44.568Z,12.30
2017-12-24T03:07:12.255Z,13.93
2017-12-24T03:09:39.995Z,13.27
2017-12-24T03:12:07.693Z,11.80
2017-12-24T03:14:35.381Z,12.80
2017-12-24T03:17:03.031Z,12.37
2017-12-24T03:19:30.715Z,13.57
2017-12-24T03:21:58.451Z,11.63
2017-12-24T03:24:26.135Z,11.57
2017-12-24T03:26:53.866Z,13.00
2017-12-24T03:29:21.558Z,12.30
2017-12-24T03:31:49.232Z,12.10
2017-12-24T03:34:16.914Z,11.37
2017-12-24T03:36:44.635Z,11.30
2017-12-24T03:39:12.315Z,10.10
2017-12-24T03:41:40.029Z,9.03
2017-12-24T03:44:07.711Z,10.80
2017-12-24T03:46:35.386Z,9.87
2017-12-24T03:49:03.073Z,9.33
2017-12-24T03:51:30.739Z,10.23
2017-12-24T03:53:58.433Z,11.20
2017-12-24T03:56:26.170Z,10.40
2017-12-24T03:58:53.898Z,9.17
2017-12-24T04:01:21.667Z,10.20
2017-12-24T04:03:49.440Z,10.80
2017-12-24T04:06:17.168Z,10.13
2017-12-24T04:08:44.834Z,9.83
2017-12-24T04:11:12.572Z,9.07
2017-12-24T04:13:40.254Z,9.07
2017-12-24T04:16:07.979Z,7.50
2017-12-24T04:18:35.644Z,9.60
2017-12-24T04:21:03.361Z,8.03
2017-12-24T04:23:31.040Z,8.33
2017-12-24T04:25:58.759Z,8.47
2017-12-24T04:28:26.439Z,9.00
2017-12-24T04:30:54.165Z,7.93
2017-12-24T04:33:21.847Z,7.30
2017-12-24T04:35:49.596Z,8.73
2017-12-24T04:38:17.276Z,7.33
2017-12-24T04:40:45.005Z,7.53
2017-12-24T04:43:12.700Z,7.40
2017-12-24T04:45:40.434Z,7.43
2017-12-24T04:48:08.120Z,8.00
2017-12-24T04:50:35.844Z,8.43
2017-12-24T04:53:03.470Z,8.00
2017-12-24T04:55:31.210Z,8.03
2017-12-24T04:57:58.894Z,7.83
2017-12-24T05:00:26.589Z,7.57
2017-12-24T05:02:54.354Z,6.80
2017-12-24T05:05:22.024Z,7.30
2017-12-24T05:07:49.697Z,7.60
2017-12-24T05:10:17.371Z,7.00
2017-12-24T05:12:45.036Z,6.47
2017-12-24T05:15:12.727Z,8.17
2017-12-24T05:17:40.453Z,7.90
2017-12-24T05:20:08.133Z,7.80
2017-12-24T05:22:35.861Z,8.10
2017-12-24T05:25:03.549Z,6.70
2017-12-24T05:27:31.227Z,7.77
2017-12-24T05:29:58.908Z,6.27
2017-12-24T05:32:26.578Z,6.13
2017-12-24T05:34:55.273Z,7.40
2017-12-24T05:37:22.997Z,6.97
2017-12-24T05:39:50.676Z,5.40
2017-12-24T05:42:18.413Z,6.67
2017-12-24T05:44:46.098Z,5.57
2017-12-24T05:47:13.834Z,4.83
2017-12-24T05:49:41.519Z,6.20
2017-12-24T05:52:09.264Z,5.97
2017-12-24T05:54:36.967Z,5.50
2017-12-24T05:57:04.704Z,5.40
2017-12-24T05:59:32.396Z,5.07
2017-12-24T06:02:00.202Z,5.80
2017-12-24T06:04:27.889Z,6.40
2017-12-24T06:06:55.617Z,5.33
2017-12-24T06:09:23.235Z,5.60
2017-12-24T06:11:50.892Z,5.50
2017-12-24T06:14:18.558Z,5.07
2017-12-24T06:16:46.289Z,4.70
2017-12-24T06:19:13.903Z,4.87
2017-12-24T06:21:41.629Z,4.30
2017-12-24T06:24:09.310Z,4.60
2017-12-24T06:26:37.035Z,4.10
2017-12-24T06:29:04.713Z,4.70
2017-12-24T06:31:32.375Z,3.47
2017-12-24T06:34:00.058Z,4.67
2017-12-24T06:36:27.803Z,4.20
2017-12-24T06:38:55.412Z,4.70
2017-12-24T06:41:23.152Z,4.50
2017-12-24T06:43:50.886Z,3.30
2017-12-24T06:46:18.560Z,4.37
2017-12-24T06:48:46.229Z,4.07
2017-12-24T06:51:13.900Z,5.10
2017-12-24T06:53:41.631Z,13.73
2017-12-24T06:56:09.308Z,13.60
2017-12-24T06:58:37.049Z,17.03
2017-12-24T07:01:04.729Z,5.43
2017-12-24T07:03:32.493Z,5.97
2017-12-24T07:06:00.173Z,5.73
2017-12-24T07:08:27.899Z,5.23
2017-12-24T07:10:55.587Z,4.90
2017-12-24T07:13:23.319Z,5.57
2017-12-24T07:15:50.940Z,5.63
2017-12-24T07:18:18.693Z,4.73
2017-12-24T07:20:46.331Z,4.90
2017-12-24T07:23:14.007Z,5.20
2017-12-24T07:25:41.636Z,5.47
2017-12-24T07:28:09.301Z,4.37
2017-12-24T07:30:36.932Z,4.87
2017-12-24T07:33:04.598Z,4.40
2017-12-24T07:35:32.205Z,4.83
2017-12-24T07:37:59.878Z,5.50
2017-12-24T07:40:27.512Z,5.63
2017-12-24T07:42:55.249Z,4.73
2017-12-24T07:45:22.933Z,4.87
2017-12-24T07:47:50.676Z,5.23
2017-12-24T07:50:19.268Z,5.33
2017-12-24T07:52:46.943Z,5.40
2017-12-24T07:55:14.565Z,5.57
2017-12-24T07:57:42.283Z,5.63
2017-12-24T08:00:09.901Z,5.73
2017-12-24T08:02:37.559Z,5.23
2017-12-24T08:05:05.183Z,5.20
2017-12-24T08:07:32.866Z,5.60
2017-12-24T08:10:00.484Z,6.40
2017-12-24T08:12:36.347Z,6.00
2017-12-24T08:15:07.200Z,6.33
2017-12-24T08:17:34.951Z,5.57
2017-12-24T08:20:02.661Z,17.30
2017-12-24T08:22:30.415Z,23.30
2017-12-24T08:24:58.040Z,6.43
2017-12-24T08:27:25.665Z,7.07
2017-12-24T08:29:53.423Z,11.47
2017-12-24T08:32:21.116Z,6.50
2017-12-24T08:34:48.809Z,6.60
2017-12-24T08:37:16.424Z,5.60
2017-12-24T08:39:44.195Z,5.73
2017-12-24T08:42:11.816Z,5.10
2017-12-24T08:44:39.491Z,5.87
2017-12-24T08:47:07.114Z,5.07
2017-12-24T08:49:34.854Z,5.90
2017-12-24T08:52:02.476Z,5.13
2017-12-24T08:54:30.200Z,5.70
2017-12-24T08:56:57.824Z,5.37
2017-12-24T08:59:25.563Z,5.57
2017-12-24T09:01:53.250Z,7.70
2017-12-24T09:04:21.027Z,7.37
2017-12-24T09:06:48.656Z,6.00
2017-12-24T09:09:16.323Z,5.60
2017-12-24T09:11:43.955Z,4.80
2017-12-24T09:14:11.693Z,5.40
2017-12-24T09:16:39.388Z,6.33
2017-12-24T09:19:07.131Z,7.20
2017-12-24T09:21:34.836Z,7.20
2017-12-24T09:24:02.555Z,6.00
2017-12-24T09:26:30.238Z,7.00
2017-12-24T09:28:57.988Z,7.27
2017-12-24T09:31:25.624Z,9.87
2017-12-24T09:33:53.302Z,12.00
2017-12-24T09:36:20.945Z,80.17
2017-12-24T09:38:48.626Z,45.97
2017-12-24T09:41:16.307Z,12.57
2017-12-24T09:43:44.020Z,9.20
2017-12-24T09:46:11.642Z,16.17
2017-12-24T09:48:39.394Z,8.00
2017-12-24T09:51:07.088Z,9.90
2017-12-24T09:53:34.756Z,7.40
2017-12-24T09:56:02.373Z,7.70
2017-12-24T09:58:30.048Z,7.37
2017-12-24T10:00:57.881Z,7.30
2017-12-24T10:03:25.660Z,6.50
2017-12-24T10:05:53.443Z,8.33
2017-12-24T10:08:21.064Z,8.00
2017-12-24T10:10:48.796Z,8.57
2017-12-24T10:13:16.431Z,7.37
2017-12-24T10:15:44.165Z,8.57
2017-12-24T10:18:11.793Z,7.80
2017-12-24T10:20:39.507Z,9.60
2017-12-24T10:23:07.203Z,8.40
2017-12-24T10:25:34.909Z,9.23
2017-12-24T10:28:02.522Z,7.80
2017-12-24T10:30:30.214Z,8.50
2017-12-24T10:32:57.850Z,9.10
2017-12-24T10:35:25.534Z,8.17
2017-12-24T10:37:53.210Z,8.77
2017-12-24T10:40:20.879Z,9.03
2017-12-24T10:42:48.581Z,8.67
2017-12-24T10:45:16.340Z,9.70
2017-12-24T10:47:43.973Z,8.43
2017-12-24T10:50:11.718Z,8.13
2017-12-24T10:52:39.434Z,10.00
2017-12-24T10:55:07.179Z,10.00
2017-12-24T10:57:34.847Z,9.97
2017-12-24T11:00:02.531Z,10.47
2017-12-24T11:02:30.192Z,10.20
2017-12-24T11:04:57.863Z,11.00
2017-12-24T11:07:25.572Z,10.77
2017-12-24T11:09:53.280Z,11.60
2017-12-24T11:12:20.994Z,12.17
2017-12-24T11:14:48.716Z,12.47
2017-12-24T11:17:16.399Z,12.70
2017-12-24T11:19:44.147Z,11.50
2017-12-24T11:22:11.846Z,12.73
2017-12-24T11:24:39.757Z,11.60
2017-12-24T11:27:07.465Z,11.93
2017-12-24T11:29:35.202Z,12.10
2017-12-24T11:32:02.825Z,12.30
2017-12-24T11:34:30.563Z,11.37
2017-12-24T11:36:58.257Z,12.97
2017-12-24T11:39:25.941Z,12.20
2017-12-24T11:41:53.573Z,9.90
2017-12-24T11:44:21.274Z,11.13
2017-12-24T11:46:49.019Z,10.90
2017-12-24T11:49:16.679Z,11.80
2017-12-24T11:51:44.444Z,12.10
2017-12-24T11:54:12.135Z,9.80
2017-12-24T11:56:39.859Z,10.30
2017-12-24T11:59:07.550Z,9.37
2017-12-24T12:01:35.297Z,11.10
2017-12-24T12:04:03.059Z,10.50
2017-12-24T12:06:30.788Z,9.90
2017-12-24T12:08:58.482Z,18.40
2017-12-24T12:11:26.215Z,28.03
2017-12-24T12:13:53.893Z,19.30
2017-12-24T12:16:21.628Z,12.03
2017-12-24T12:18:49.263Z,10.53
2017-12-24T12:21:17.001Z,12.80
2017-12-24T12:23:44.694Z,11.30
2017-12-24T12:26:12.445Z,12.27
2017-12-24T12:28:40.122Z,9.33
2017-12-24T12:31:07.861Z,10.40
2017-12-24T12:33:35.594Z,10.20
2017-12-24T12:36:03.285Z,11.23
2017-12-24T12:38:30.976Z,13.00
2017-12-24T12:40:58.663Z,11.40
2017-12-24T12:43:26.345Z,11.00
2017-12-24T12:45:54.027Z,10.97
2017-12-24T12:48:21.718Z,9.87
2017-12-24T12:50:49.380Z,10.57
2017-12-24T12:53:16.999Z,11.03
2017-12-24T12:55:44.667Z,10.67
2017-12-24T12:58:12.350Z,9.70
2017-12-24T13:00:40.028Z,9.63
2017-12-24T13:03:07.667Z,9.03
2017-12-24T13:05:35.401Z,9.90
2017-12-24T13:08:03.039Z,9.60
2017-12-24T13:10:30.716Z,9.77
2017-12-24T13:12:58.338Z,9.37
2017-12-24T13:15:26.017Z,8.67
2017-12-24T13:17:53.640Z,8.70
2017-12-24T13:20:21.303Z,9.40
2017-12-24T13:22:48.916Z,8.63
2017-12-24T13:25:16.556Z,10.47
2017-12-24T13:27:44.281Z,8.30
2017-12-24T13:30:11.908Z,7.80
2017-12-24T13:32:39.571Z,9.10
2017-12-24T13:35:07.258Z,7.90
2017-12-24T13:37:34.928Z,7.80
2017-12-24T13:40:02.637Z,6.50
2017-12-24T13:42:30.307Z,8.30
2017-12-24T13:44:57.924Z,7.77
2017-12-24T13:47:25.601Z,7.67
2017-12-24T13:49:53.223Z,8.53
2017-12-24T13:52:20.902Z,7.30
2017-12-24T13:54:48.535Z,7.80
2017-12-24T13:57:16.208Z,8.03
2017-12-24T13:59:43.838Z,7.83
2017-12-24T14:02:11.570Z,5.30
2017-12-24T14:04:39.194Z,6.53
2017-12-24T14:07:06.858Z,6.30
2017-12-24T14:09:34.492Z,7.17
2017-12-24T14:12:05.824Z,5.97
2017-12-24T14:14:33.445Z,5.80
2017-12-24T14:17:01.110Z,6.27
2017-12-24T14:19:28.809Z,6.60
2017-12-24T14:21:56.493Z,6.00
2017-12-24T14:24:24.130Z,5.40
2017-12-24T14:26:51.876Z,6.20
2017-12-24T14:29:19.524Z,5.83
2017-12-24T14:31:47.267Z,6.33
2017-12-24T14:34:14.966Z,5.93
2017-12-24T14:36:42.637Z,5.20
2017-12-24T14:39:10.325Z,6.30
2017-12-24T14:41:38.074Z,6.00
2017-12-24T14:44:05.760Z,6.20
2017-12-24T14:46:33.438Z,5.70
2017-12-24T14:49:01.116Z,5.97
2017-12-24T14:51:28.842Z,6.17
2017-12-24T14:53:56.510Z,6.27
2017-12-24T14:56:24.254Z,6.17
2017-12-24T14:58:52.230Z,5.80
2017-12-24T15:01:19.969Z,6.07
2017-12-24T15:03:47.709Z,5.50
2017-12-24T15:06:15.408Z,4.63
2017-12-24T15:08:43.274Z,5.77
2017-12-24T15:11:10.977Z,5.90
2017-12-24T15:13:38.744Z,6.10
2017-12-24T15:16:06.452Z,6.00
2017-12-24T15:18:34.188Z,6.50
2017-12-24T15:21:01.876Z,5.80
2017-12-24T15:23:29.607Z,6.10
2017-12-24T15:25:57.294Z,6.07
2017-12-24T15:28:25.020Z,6.53
2017-12-24T15:30:52.711Z,5.90
2017-12-24T15:33:20.455Z,6.40
2017-12-24T15:35:48.167Z,6.40
2017-12-24T15:38:15.879Z,6.27
2017-12-24T15:40:43.555Z,6.80
2017-12-24T15:43:11.241Z,5.83
2017-12-24T15:45:38.929Z,5.63
2017-12-24T15:48:06.715Z,6.00
2017-12-24T15:50:34.429Z,6.37
2017-12-24T15:53:02.164Z,6.63
2017-12-24T15:55:29.856Z,5.70
2017-12-24T15:57:57.584Z,6.40
2017-12-24T16:00:25.271Z,6.43
2017-12-24T16:02:53.069Z,5.97
2017-12-24T16:05:20.752Z,5.73
2017-12-24T16:07:48.491Z,5.70
2017-12-24T16:10:16.188Z,5.60
2017-12-24T16:12:43.924Z,5.27
2017-12-24T16:15:11.659Z,5.67
2017-12-24T16:17:39.388Z,6.10
2017-12-24T16:20:07.067Z,6.47
2017-12-24T16:22:34.800Z,4.83
2017-12-24T16:25:02.484Z,6.23
2017-12-24T16:27:30.220Z,5.57
2017-12-24T16:29:57.915Z,5.73
2017-12-24T16:32:25.607Z,6.10
2017-12-24T16:34:53.292Z,6.50
2017-12-24T16:37:21.033Z,6.50
2017-12-24T16:39:48.722Z,6.10
2017-12-24T16:42:16.455Z,5.97
2017-12-24T16:44:44.139Z,7.30
2017-12-24T16:47:11.808Z,5.73
2017-12-24T16:49:39.565Z,6.50
2017-12-24T16:52:07.252Z,6.83
2017-12-24T16:54:34.988Z,6.57
2017-12-24T16:57:02.684Z,7.10
2017-12-24T16:59:30.415Z,6.80
2017-12-24T17:01:58.125Z,5.80
2017-12-24T17:04:25.908Z,7.63
2017-12-24T17:06:53.594Z,6.67
2017-12-24T17:09:21.312Z,7.13
2017-12-24T17:11:49.001Z,7.43
2017-12-24T17:14:16.740Z,6.57
2017-12-24T17:16:44.428Z,7.17
2017-12-24T17:19:12.177Z,6.23
2017-12-24T17:21:39.865Z,6.87
2017-12-24T17:24:07.592Z,6.37
2017-12-24T17:26:35.276Z,7.40
2017-12-24T17:29:03.035Z,6.50
2017-12-24T17:31:30.729Z,7.10
2017-12-24T17:33:58.466Z,7.20
2017-12-24T17:36:26.147Z,7.43
2017-12-24T17:38:53.896Z,7.40
2017-12-24T17:41:21.568Z,7.40
2017-12-24T17:43:49.236Z,7.50
2017-12-24T17:46:16.888Z,7.83
2017-12-24T17:48:44.562Z,6.90
2017-12-24T17:51:12.198Z,8.53
2017-12-24T17:53:39.871Z,24.90
2017-12-24T17:56:07.516Z,22.63
2017-12-24T17:58:35.260Z,69.47
2017-12-24T18:01:02.981Z,103.67
2017-12-24T18:03:30.677Z,28.00
2017-12-24T18:05:58.384Z,15.90
2017-12-24T18:08:26.139Z,14.87
2017-12-24T18:10:53.828Z,35.97
2017-12-24T18:13:21.546Z,27.83
2017-12-24T18:15:49.224Z,18.10
2017-12-24T18:18:16.906Z,12.67
2017-12-24T18:20:44.600Z,8.90
2017-12-24T18:23:12.373Z,10.10
2017-12-24T18:25:40.055Z,9.60
2017-12-24T18:28:07.689Z,9.20
2017-12-24T18:30:35.431Z,8.30
2017-12-24T18:33:03.179Z,8.77
2017-12-24T18:35:30.852Z,9.07
2017-12-24T18:37:58.547Z,8.70
2017-12-24T18:40:26.269Z,9.13
2017-12-24T18:42:53.948Z,8.70
2017-12-24T18:45:21.613Z,9.57
2017-12-24T18:47:49.295Z,9.27
2017-12-24T18:50:17.035Z,8.10
2017-12-24T18:52:44.753Z,9.50
2017-12-24T18:55:12.435Z,9.30
2017-12-24T18:57:40.156Z,9.07
2017-12-24T19:00:07.834Z,9.60
2017-12-24T19:02:35.468Z,8.00
2017-12-24T19:05:03.159Z,8.73
2017-12-24T19:07:30.798Z,9.10
2017-12-24T19:09:58.471Z,10.03
2017-12-24T19:12:26.092Z,10.10
2017-12-24T19:14:53.843Z,10.67
2017-12-24T19:17:21.539Z,9.67
2017-12-24T19:19:49.299Z,10.20
2017-12-24T19:22:16.927Z,10.80
2017-12-24T19:24:44.708Z,9.80
2017-12-24T19:27:12.327Z,9.90
2017-12-24T19:29:40.075Z,10.20
2017-12-24T19:32:07.743Z,11.03
2017-12-24T19:34:35.510Z,10.80
2017-12-24T19:37:03.187Z,11.47
2017-12-24T19:39:30.904Z,11.00
2017-12-24T19:41:58.528Z,10.83
2017-12-24T19:44:26.222Z,11.33
2017-12-24T19:46:53.915Z,12.00
2017-12-24T19:49:21.623Z,9.90
2017-12-24T19:51:49.764Z,10.10
2017-12-24T19:54:17.479Z,11.20
2017-12-24T19:56:45.162Z,11.40
2017-12-24T19:59:12.862Z,10.93
2017-12-24T20:01:40.482Z,40.57
2017-12-24T20:04:08.207Z,45.10
2017-12-24T20:06:37.433Z,20.13
2017-12-24T20:09:05.122Z,17.17
2017-12-24T20:11:32.962Z,12.40
2017-12-24T20:14:00.598Z,12.13
2017-12-24T20:16:28.285Z,12.83
2017-12-24T20:18:55.979Z,12.10
2017-12-24T20:21:23.713Z,11.70
2017-12-24T20:23:51.427Z,10.60
2017-12-24T20:26:19.139Z,11.10
2017-12-24T20:28:46.896Z,12.17
2017-12-24T20:31:14.628Z,11.10
2017-12-24T20:33:42.278Z,11.13
2017-12-24T20:36:10.052Z,11.80
2017-12-24T20:38:37.757Z,11.97
2017-12-24T20:41:05.489Z,12.60
2017-12-24T20:43:33.224Z,11.90
2017-12-24T20:46:01.034Z,12.17
2017-12-24T20:48:28.725Z,11.03
2017-12-24T20:50:56.452Z,11.10
2017-12-24T20:53:24.127Z,12.07
2017-12-24T20:55:51.820Z,10.50
2017-12-24T20:58:19.554Z,11.20
2017-12-24T21:00:47.273Z,11.80
2017-12-24T21:03:15.021Z,11.70
2017-12-24T21:05:42.748Z,12.00
2017-12-24T21:08:10.422Z,11.07
2017-12-24T21:10:38.154Z,12.40
2017-12-24T21:13:05.877Z,10.67
2017-12-24T21:15:33.614Z,11.50
2017-12-24T21:18:01.317Z,10.37
2017-12-24T21:20:29.059Z,10.87
2017-12-24T21:22:56.754Z,10.70
2017-12-24T21:25:24.473Z,11.63
2017-12-24T21:27:52.243Z,10.37
2017-12-24T21:30:20.049Z,10.63
2017-12-24T21:32:47.685Z,10.93
2017-12-24T21:35:15.897Z,11.03
2017-12-24T21:37:43.576Z,10.30
2017-12-24T21:40:11.389Z,10.13
2017-12-24T21:42:39.068Z,10.80
2017-12-24T21:45:06.822Z,10.13
2017-12-24T21:47:34.533Z,11.00
2017-12-24T21:50:02.231Z,10.20
2017-12-24T21:52:30.003Z,11.27
2017-12-24T21:54:57.722Z,11.07
2017-12-24T21:57:25.521Z,10.67
2017-12-24T21:59:53.216Z,10.10
2017-12-24T22:02:20.959Z,11.33
2017-12-24T22:04:48.585Z,10.80
2017-12-24T22:07:16.316Z,9.33
2017-12-24T22:09:44.072Z,11.10
2017-12-24T22:12:11.847Z,11.30
2017-12-24T22:14:39.588Z,9.97
2017-12-24T22:17:07.318Z,10.53
2017-12-24T22:19:35.007Z,11.17
2017-12-24T22:22:02.713Z,11.63
2017-12-24T22:24:30.403Z,10.73
2017-12-24T22:26:58.131Z,10.33
2017-12-24T22:29:25.862Z,10.30
2017-12-24T22:31:53.595Z,11.70
2017-12-24T22:34:21.269Z,11.60
2017-12-24T22:36:48.980Z,12.30
2017-12-24T22:39:16.666Z,12.00
2017-12-24T22:41:44.398Z,12.63
2017-12-24T22:44:12.087Z,12.80
2017-12-24T22:46:39.905Z,12.60
2017-12-24T22:49:07.579Z,13.63
2017-12-24T22:51:35.348Z,13.63
2017-12-24T22:54:03.064Z,11.90
2017-12-24T22:56:30.791Z,12.77
2017-12-24T22:58:58.474Z,14.60
2017-12-24T23:01:26.189Z,13.23
2017-12-24T23:03:53.963Z,14.10
2017-12-24T23:06:21.682Z,13.73
2017-12-24T23:08:49.435Z,14.10
2017-12-24T23:11:18.112Z,15.13
2017-12-24T23:13:45.852Z,13.80
2017-12-24T23:16:13.560Z,14.03
2017-12-24T23:18:41.197Z,14.10
2017-12-24T23:21:08.914Z,14.80
2017-12-24T23:23:36.662Z,14.27
2017-12-24T23:26:04.406Z,14.90
2017-12-24T23:28:32.136Z,14.03
2017-12-24T23:30:59.780Z,14.03
2017-12-24T23:33:27.512Z,14.23
2017-12-24T23:35:55.246Z,13.57
2017-12-24T23:38:22.977Z,14.00
2017-12-24T23:40:50.601Z,13.70
2017-12-24T23:43:18.376Z,12.53
2017-12-24T23:45:46.121Z,12.70
2017-12-24T23:48:13.855Z,12.50
2017-12-24T23:50:41.544Z,11.03
2017-12-24T23:53:09.271Z,10.77
2017-12-24T23:55:36.894Z,9.93
2017-12-24T23:58:04.594Z,9.50
